FHY112 LIPZ-LTAC
Flight info
| Callsign | FHY112 |
|---|---|
| Flight time | 2h 16m |
| Altitude | 37000 |
| Route | ROSKA DCT SONIK DCT KEB DCT TORTO DCT RAMAP DCT NISVA DCT BLO DCT DEDIN DCT VADEN DCT DIGBO DCT BKZ DCT GAYEM DCT ERKAL DCT ERSEN DCT YAVRU DCT SALGO |
| Aircraft | A320/M-SDE3FGHIRWY/LB1 |
Departure
| Time | 2026-05-06 17:39 |
|---|---|
| Airport | Venice Marco Polo Airport (LIPZ) |
Arrival
| Time | 2026-05-06 19:55 |
|---|---|
| Airport | Esenboğa International Airport (LTAC) |
| Time | Latitude | Longitude | Altitude | Speed | Heading |
|---|---|---|---|---|---|
| 2026-05-06 17:25 | 45.50489 | 12.34195 | 17 ft | 0 kts | 267° |
| 2026-05-06 17:31 | 45.50490 | 12.34207 | 16 ft | 4 kts | 268° |
| 2026-05-06 17:32 | 45.50490 | 12.34246 | 19 ft | 4 kts | 268° |
| 2026-05-06 17:32 | 45.50491 | 12.34277 | 19 ft | 4 kts | 260° |
| 2026-05-06 17:32 | 45.50499 | 12.34312 | 18 ft | 4 kts | 237° |
| 2026-05-06 17:32 | 45.50517 | 12.34337 | 20 ft | 4 kts | 195° |
| 2026-05-06 17:33 | 45.50529 | 12.34339 | 15 ft | 0 kts | 177° |
| 2026-05-06 17:35 | 45.50509 | 12.34340 | 19 ft | 8 kts | 179° |
| 2026-05-06 17:35 | 45.50436 | 12.34346 | 16 ft | 12 kts | 178° |
| 2026-05-06 17:35 | 45.50351 | 12.34351 | 16 ft | 13 kts | 176° |
| 2026-05-06 17:36 | 45.50162 | 12.34356 | 16 ft | 15 kts | 188° |
| 2026-05-06 17:36 | 45.50073 | 12.34278 | 15 ft | 16 kts | 218° |
| 2026-05-06 17:36 | 45.49989 | 12.34165 | 14 ft | 18 kts | 222° |
| 2026-05-06 17:36 | 45.49891 | 12.34039 | 14 ft | 19 kts | 221° |
| 2026-05-06 17:37 | 45.49789 | 12.33910 | 15 ft | 20 kts | 222° |
| 2026-05-06 17:37 | 45.49685 | 12.33778 | 17 ft | 20 kts | 221° |
| 2026-05-06 17:37 | 45.49591 | 12.33692 | 16 ft | 14 kts | 175° |
| 2026-05-06 17:37 | 45.49516 | 12.33788 | 16 ft | 15 kts | 125° |
| 2026-05-06 17:38 | 45.49527 | 12.33926 | 15 ft | 12 kts | 43° |
| 2026-05-06 17:38 | 45.49531 | 12.33932 | 15 ft | 0 kts | 41° |
| 2026-05-06 17:38 | 45.49544 | 12.33948 | 15 ft | 16 kts | 41° |
| 2026-05-06 17:38 | 45.49848 | 12.34340 | 13 ft | 99 kts | 42° |
| 2026-05-06 17:39 | 45.50536 | 12.35232 | 19 ft | 164 kts | 40° |
| 2026-05-06 17:39 | 45.51424 | 12.36428 | 417 ft | 182 kts | 46° |
| 2026-05-06 17:39 | 45.52352 | 12.37721 | 1120 ft | 193 kts | 45° |
| 2026-05-06 17:39 | 45.53250 | 12.39205 | 1793 ft | 203 kts | 65° |
| 2026-05-06 17:40 | 45.53592 | 12.41171 | 2466 ft | 211 kts | 95° |
| 2026-05-06 17:40 | 45.53402 | 12.43275 | 3138 ft | 224 kts | 101° |
| 2026-05-06 17:40 | 45.53153 | 12.45579 | 3781 ft | 246 kts | 101° |
| 2026-05-06 17:40 | 45.52888 | 12.48065 | 4858 ft | 242 kts | 101° |
| 2026-05-06 17:41 | 45.52653 | 12.50356 | 5868 ft | 238 kts | 102° |
| 2026-05-06 17:41 | 45.52390 | 12.52796 | 6239 ft | 257 kts | 105° |
| 2026-05-06 17:41 | 45.51719 | 12.55153 | 6843 ft | 257 kts | 129° |
| 2026-05-06 17:41 | 45.50559 | 12.57081 | 7569 ft | 257 kts | 137° |
| 2026-05-06 17:42 | 45.49336 | 12.58948 | 8341 ft | 259 kts | 138° |
| 2026-05-06 17:42 | 45.48094 | 12.60838 | 9106 ft | 262 kts | 138° |
| 2026-05-06 17:42 | 45.46838 | 12.62738 | 9865 ft | 265 kts | 139° |
| 2026-05-06 17:42 | 45.45530 | 12.64707 | 10208 ft | 284 kts | 138° |
| 2026-05-06 17:43 | 45.44112 | 12.66839 | 10419 ft | 308 kts | 138° |
| 2026-05-06 17:43 | 45.42582 | 12.69147 | 10609 ft | 332 kts | 137° |
| 2026-05-06 17:43 | 45.40950 | 12.71621 | 10787 ft | 353 kts | 137° |
| 2026-05-06 17:43 | 45.39254 | 12.74207 | 11337 ft | 361 kts | 137° |
| 2026-05-06 17:44 | 45.37539 | 12.76835 | 11989 ft | 364 kts | 137° |
| 2026-05-06 17:44 | 45.35802 | 12.79490 | 12652 ft | 367 kts | 137° |
| 2026-05-06 17:44 | 45.34053 | 12.82154 | 13291 ft | 371 kts | 137° |
| 2026-05-06 17:44 | 45.32355 | 12.84924 | 13879 ft | 377 kts | 130° |
| 2026-05-06 17:45 | 45.31409 | 12.87009 | 14217 ft | 382 kts | 123° |
| 2026-05-06 17:45 | 45.30035 | 12.91726 | 14926 ft | 391 kts | 113° |
| 2026-05-06 17:45 | 45.29136 | 12.95399 | 15444 ft | 395 kts | 113° |
| 2026-05-06 17:45 | 45.28239 | 12.99048 | 15942 ft | 398 kts | 113° |
| 2026-05-06 17:46 | 45.27306 | 13.02829 | 16450 ft | 402 kts | 113° |
| 2026-05-06 17:46 | 45.26386 | 13.06541 | 16938 ft | 406 kts | 113° |
| 2026-05-06 17:46 | 45.25438 | 13.10359 | 17439 ft | 410 kts | 113° |
| 2026-05-06 17:46 | 45.24486 | 13.14193 | 17936 ft | 414 kts | 113° |
| 2026-05-06 17:47 | 45.23523 | 13.18061 | 18401 ft | 418 kts | 113° |
| 2026-05-06 17:47 | 45.22547 | 13.21974 | 18853 ft | 421 kts | 113° |
| 2026-05-06 17:47 | 45.21572 | 13.25877 | 19331 ft | 423 kts | 113° |
| 2026-05-06 17:47 | 45.20587 | 13.29818 | 19788 ft | 425 kts | 113° |
| 2026-05-06 17:48 | 45.19593 | 13.33787 | 20229 ft | 428 kts | 113° |
| 2026-05-06 17:48 | 45.18596 | 13.37765 | 20667 ft | 430 kts | 113° |
| 2026-05-06 17:48 | 45.17588 | 13.41774 | 21070 ft | 433 kts | 114° |
| 2026-05-06 17:48 | 45.16569 | 13.45812 | 21459 ft | 436 kts | 114° |
| 2026-05-06 17:49 | 45.15538 | 13.49879 | 21859 ft | 439 kts | 114° |
| 2026-05-06 17:49 | 45.14503 | 13.53955 | 22246 ft | 442 kts | 114° |
| 2026-05-06 17:49 | 45.13459 | 13.58070 | 22577 ft | 446 kts | 114° |
| 2026-05-06 17:49 | 45.12405 | 13.62226 | 22837 ft | 451 kts | 114° |
| 2026-05-06 17:50 | 45.11343 | 13.66419 | 23185 ft | 455 kts | 115° |
| 2026-05-06 17:50 | 45.10271 | 13.70647 | 23516 ft | 458 kts | 115° |
| 2026-05-06 17:50 | 45.09186 | 13.74915 | 23807 ft | 460 kts | 115° |
| 2026-05-06 17:50 | 45.08097 | 13.79174 | 24112 ft | 462 kts | 115° |
| 2026-05-06 17:51 | 45.07001 | 13.83449 | 24402 ft | 464 kts | 115° |
| 2026-05-06 17:51 | 45.05895 | 13.87752 | 24705 ft | 466 kts | 115° |
| 2026-05-06 17:51 | 45.04800 | 13.92014 | 24974 ft | 468 kts | 115° |
| 2026-05-06 17:51 | 45.03665 | 13.96420 | 25190 ft | 472 kts | 115° |
| 2026-05-06 17:52 | 45.02550 | 14.00737 | 25440 ft | 475 kts | 115° |
| 2026-05-06 17:52 | 45.01413 | 14.05136 | 25711 ft | 477 kts | 115° |
| 2026-05-06 17:52 | 45.00274 | 14.09539 | 25992 ft | 478 kts | 115° |
| 2026-05-06 17:52 | 44.99126 | 14.13967 | 26274 ft | 480 kts | 115° |
| 2026-05-06 17:53 | 44.97970 | 14.18398 | 26502 ft | 481 kts | 115° |
| 2026-05-06 17:53 | 44.96809 | 14.22848 | 26741 ft | 483 kts | 115° |
| 2026-05-06 17:53 | 44.95645 | 14.27316 | 26962 ft | 484 kts | 115° |
| 2026-05-06 17:53 | 44.94485 | 14.31776 | 27247 ft | 485 kts | 115° |
| 2026-05-06 17:54 | 44.93319 | 14.36242 | 27491 ft | 486 kts | 115° |
| 2026-05-06 17:54 | 44.92143 | 14.40720 | 27726 ft | 487 kts | 115° |
| 2026-05-06 17:54 | 44.90961 | 14.45200 | 27976 ft | 488 kts | 115° |
| 2026-05-06 17:54 | 44.89774 | 14.49693 | 28169 ft | 490 kts | 115° |
| 2026-05-06 17:55 | 44.88580 | 14.54211 | 28374 ft | 491 kts | 115° |
| 2026-05-06 17:55 | 44.87387 | 14.58715 | 28561 ft | 492 kts | 115° |
| 2026-05-06 17:55 | 44.86180 | 14.63246 | 28787 ft | 492 kts | 115° |
| 2026-05-06 17:55 | 44.84980 | 14.67755 | 29085 ft | 491 kts | 115° |
| 2026-05-06 17:56 | 44.83786 | 14.72254 | 29358 ft | 490 kts | 115° |
| 2026-05-06 17:56 | 44.82591 | 14.76760 | 29642 ft | 489 kts | 115° |
| 2026-05-06 17:56 | 44.81398 | 14.81259 | 29912 ft | 489 kts | 115° |
| 2026-05-06 17:56 | 44.80205 | 14.85737 | 30159 ft | 488 kts | 115° |
| 2026-05-06 17:57 | 44.79011 | 14.90194 | 30423 ft | 486 kts | 115° |
| 2026-05-06 17:57 | 44.77818 | 14.94634 | 30730 ft | 484 kts | 115° |
| 2026-05-06 17:57 | 44.76626 | 14.99059 | 30994 ft | 483 kts | 115° |
| 2026-05-06 17:57 | 44.75436 | 15.03472 | 31231 ft | 482 kts | 115° |
| 2026-05-06 17:58 | 44.74258 | 15.07832 | 31448 ft | 482 kts | 115° |
| 2026-05-06 17:58 | 44.73070 | 15.12218 | 31668 ft | 481 kts | 115° |
| 2026-05-06 17:58 | 44.71877 | 15.16619 | 31875 ft | 480 kts | 116° |
| 2026-05-06 17:58 | 44.70684 | 15.21005 | 32092 ft | 480 kts | 115° |
| 2026-05-06 17:59 | 44.69891 | 15.23916 | 32245 ft | 479 kts | 115° |
| 2026-05-06 17:59 | 44.68701 | 15.28282 | 32467 ft | 479 kts | 115° |
| 2026-05-06 17:59 | 44.67493 | 15.32718 | 32619 ft | 481 kts | 115° |
| 2026-05-06 17:59 | 44.66296 | 15.37114 | 32759 ft | 482 kts | 115° |
| 2026-05-06 18:00 | 44.65111 | 15.41459 | 32928 ft | 483 kts | 116° |
| 2026-05-06 18:00 | 44.63901 | 15.45858 | 33151 ft | 483 kts | 116° |
| 2026-05-06 18:00 | 44.62687 | 15.50254 | 33362 ft | 482 kts | 116° |
| 2026-05-06 18:00 | 44.61477 | 15.54640 | 33576 ft | 482 kts | 116° |
| 2026-05-06 18:01 | 44.60268 | 15.59034 | 33803 ft | 482 kts | 116° |
| 2026-05-06 18:01 | 44.59063 | 15.63413 | 33997 ft | 481 kts | 116° |
| 2026-05-06 18:01 | 44.57852 | 15.67794 | 34142 ft | 483 kts | 116° |
| 2026-05-06 18:01 | 44.56632 | 15.72185 | 34282 ft | 484 kts | 116° |
| 2026-05-06 18:02 | 44.55408 | 15.76579 | 34444 ft | 484 kts | 116° |
| 2026-05-06 18:02 | 44.54179 | 15.80984 | 34618 ft | 484 kts | 116° |
| 2026-05-06 18:02 | 44.52956 | 15.85367 | 34800 ft | 484 kts | 116° |
| 2026-05-06 18:02 | 44.51731 | 15.89752 | 34980 ft | 483 kts | 116° |
| 2026-05-06 18:03 | 44.50507 | 15.94137 | 35157 ft | 483 kts | 116° |
| 2026-05-06 18:03 | 44.49279 | 15.98529 | 35302 ft | 483 kts | 116° |
| 2026-05-06 18:03 | 44.48052 | 16.02909 | 35434 ft | 484 kts | 116° |
| 2026-05-06 18:03 | 44.46821 | 16.07298 | 35560 ft | 485 kts | 116° |
| 2026-05-06 18:04 | 44.45585 | 16.11692 | 35683 ft | 485 kts | 116° |
| 2026-05-06 18:04 | 44.44450 | 16.16148 | 35827 ft | 489 kts | 111° |
| 2026-05-06 18:04 | 44.43488 | 16.20702 | 35980 ft | 488 kts | 111° |
| 2026-05-06 18:04 | 44.42524 | 16.25266 | 36122 ft | 488 kts | 111° |
| 2026-05-06 18:05 | 44.41562 | 16.29811 | 36263 ft | 487 kts | 111° |
| 2026-05-06 18:05 | 44.40596 | 16.34356 | 36380 ft | 487 kts | 111° |
| 2026-05-06 18:05 | 44.39627 | 16.38888 | 36515 ft | 487 kts | 111° |
| 2026-05-06 18:05 | 44.38653 | 16.43440 | 36649 ft | 487 kts | 111° |
| 2026-05-06 18:06 | 44.37685 | 16.47963 | 36767 ft | 487 kts | 111° |
| 2026-05-06 18:06 | 44.36713 | 16.52494 | 36936 ft | 487 kts | 111° |
| 2026-05-06 18:06 | 44.34761 | 16.61540 | 36998 ft | 488 kts | 111° |
| 2026-05-06 18:07 | 44.32786 | 16.70627 | 37006 ft | 489 kts | 111° |
| 2026-05-06 18:07 | 44.30791 | 16.79779 | 37001 ft | 489 kts | 111° |
| 2026-05-06 18:08 | 44.28805 | 16.88872 | 37002 ft | 490 kts | 111° |
| 2026-05-06 18:08 | 44.26826 | 16.97900 | 36995 ft | 490 kts | 111° |
| 2026-05-06 18:09 | 44.24832 | 17.06984 | 37006 ft | 489 kts | 110° |
| 2026-05-06 18:09 | 44.22829 | 17.16046 | 37020 ft | 489 kts | 111° |
| 2026-05-06 18:10 | 44.20817 | 17.25107 | 37021 ft | 489 kts | 111° |
| 2026-05-06 18:10 | 44.18803 | 17.34152 | 37014 ft | 488 kts | 110° |
| 2026-05-06 18:11 | 44.16775 | 17.43195 | 37012 ft | 488 kts | 110° |
| 2026-05-06 18:11 | 44.14747 | 17.52218 | 37014 ft | 488 kts | 111° |
| 2026-05-06 18:12 | 44.12711 | 17.61232 | 37009 ft | 488 kts | 111° |
| 2026-05-06 18:12 | 44.10667 | 17.70232 | 36994 ft | 488 kts | 111° |
| 2026-05-06 18:13 | 44.08618 | 17.79225 | 36994 ft | 488 kts | 110° |
| 2026-05-06 18:13 | 44.06573 | 17.88173 | 37000 ft | 488 kts | 111° |
| 2026-05-06 18:14 | 44.04506 | 17.97175 | 37006 ft | 488 kts | 111° |
| 2026-05-06 18:14 | 44.02440 | 18.06161 | 37008 ft | 488 kts | 110° |
| 2026-05-06 18:15 | 44.00365 | 18.15127 | 37021 ft | 487 kts | 111° |
| 2026-05-06 18:15 | 43.98281 | 18.24075 | 37035 ft | 487 kts | 111° |
| 2026-05-06 18:16 | 43.96193 | 18.33018 | 37046 ft | 487 kts | 111° |
| 2026-05-06 18:16 | 43.94101 | 18.41949 | 37041 ft | 487 kts | 111° |
| 2026-05-06 18:17 | 43.92079 | 18.50912 | 37038 ft | 487 kts | 109° |
| 2026-05-06 18:17 | 43.90302 | 18.59996 | 37030 ft | 487 kts | 108° |
| 2026-05-06 18:18 | 43.88573 | 18.69080 | 37021 ft | 487 kts | 108° |
| 2026-05-06 18:18 | 43.86776 | 18.78133 | 36999 ft | 487 kts | 108° |
| 2026-05-06 18:19 | 43.84939 | 18.87113 | 37019 ft | 487 kts | 108° |
| 2026-05-06 18:19 | 43.83085 | 18.96143 | 37021 ft | 487 kts | 108° |
| 2026-05-06 18:20 | 43.81240 | 19.05171 | 37008 ft | 487 kts | 108° |
| 2026-05-06 18:20 | 43.79392 | 19.14195 | 37011 ft | 487 kts | 108° |
| 2026-05-06 18:21 | 43.77537 | 19.23192 | 37011 ft | 486 kts | 108° |
| 2026-05-06 18:21 | 43.75668 | 19.32181 | 37011 ft | 486 kts | 108° |
| 2026-05-06 18:22 | 43.73798 | 19.41160 | 36998 ft | 485 kts | 108° |
| 2026-05-06 18:22 | 43.71930 | 19.50116 | 37011 ft | 484 kts | 108° |
| 2026-05-06 18:23 | 43.70058 | 19.59044 | 37015 ft | 484 kts | 108° |
| 2026-05-06 18:23 | 43.68176 | 19.67972 | 37011 ft | 483 kts | 108° |
| 2026-05-06 18:24 | 43.66289 | 19.76874 | 37009 ft | 482 kts | 108° |
| 2026-05-06 18:24 | 43.64414 | 19.85703 | 37006 ft | 481 kts | 108° |
| 2026-05-06 18:25 | 43.62517 | 19.94624 | 37001 ft | 481 kts | 108° |
| 2026-05-06 18:25 | 43.60625 | 20.03461 | 36998 ft | 480 kts | 108° |
| 2026-05-06 18:26 | 43.58722 | 20.12298 | 36994 ft | 480 kts | 108° |
| 2026-05-06 18:26 | 43.56822 | 20.21052 | 36989 ft | 479 kts | 108° |
| 2026-05-06 18:27 | 43.54912 | 20.29857 | 36986 ft | 479 kts | 108° |
| 2026-05-06 18:27 | 43.52995 | 20.38654 | 36979 ft | 479 kts | 108° |
| 2026-05-06 18:28 | 43.51068 | 20.47450 | 36991 ft | 479 kts | 108° |
| 2026-05-06 18:28 | 43.49137 | 20.56218 | 36994 ft | 478 kts | 108° |
| 2026-05-06 18:29 | 43.47202 | 20.64971 | 36997 ft | 477 kts | 108° |
| 2026-05-06 18:29 | 43.45265 | 20.73711 | 36991 ft | 477 kts | 108° |
| 2026-05-06 18:30 | 43.43324 | 20.82442 | 37002 ft | 476 kts | 108° |
| 2026-05-06 18:30 | 43.41383 | 20.91150 | 37000 ft | 476 kts | 108° |
| 2026-05-06 18:31 | 43.39431 | 20.99839 | 36992 ft | 475 kts | 108° |
| 2026-05-06 18:31 | 43.37468 | 21.08509 | 36993 ft | 475 kts | 108° |
| 2026-05-06 18:32 | 43.35526 | 21.17119 | 36989 ft | 474 kts | 108° |
| 2026-05-06 18:32 | 43.33569 | 21.25775 | 36977 ft | 476 kts | 108° |
| 2026-05-06 18:33 | 43.31585 | 21.34481 | 36971 ft | 479 kts | 108° |
| 2026-05-06 18:33 | 43.29577 | 21.43233 | 36974 ft | 482 kts | 108° |
| 2026-05-06 18:34 | 43.27552 | 21.52036 | 36971 ft | 484 kts | 108° |
| 2026-05-06 18:34 | 43.25515 | 21.60854 | 36957 ft | 485 kts | 108° |
| 2026-05-06 18:35 | 43.23468 | 21.69690 | 36948 ft | 486 kts | 108° |
| 2026-05-06 18:35 | 43.21418 | 21.78540 | 36952 ft | 487 kts | 108° |
| 2026-05-06 18:36 | 43.19357 | 21.87381 | 36958 ft | 487 kts | 108° |
| 2026-05-06 18:36 | 43.17281 | 21.96221 | 36985 ft | 488 kts | 108° |
| 2026-05-06 18:37 | 43.15540 | 22.03579 | 36982 ft | 488 kts | 108° |
| 2026-05-06 18:37 | 43.13096 | 22.13918 | 36981 ft | 488 kts | 108° |
| 2026-05-06 18:38 | 43.11010 | 22.22728 | 36988 ft | 488 kts | 108° |
| 2026-05-06 18:38 | 43.08908 | 22.31542 | 36995 ft | 488 kts | 108° |
| 2026-05-06 18:39 | 43.06801 | 22.40346 | 37006 ft | 488 kts | 108° |
| 2026-05-06 18:40 | 43.03630 | 22.53545 | 37013 ft | 489 kts | 108° |
| 2026-05-06 18:40 | 43.01507 | 22.62359 | 37013 ft | 489 kts | 108° |
| 2026-05-06 18:41 | 42.99357 | 22.71218 | 37024 ft | 489 kts | 108° |
| 2026-05-06 18:41 | 42.97218 | 22.79969 | 37025 ft | 489 kts | 109° |
| 2026-05-06 18:42 | 42.94801 | 22.88692 | 37017 ft | 489 kts | 112° |
| 2026-05-06 18:42 | 42.92173 | 22.97232 | 37021 ft | 489 kts | 113° |
| 2026-05-06 18:43 | 42.89555 | 23.05738 | 37015 ft | 489 kts | 112° |
| 2026-05-06 18:43 | 42.86982 | 23.14329 | 37023 ft | 490 kts | 112° |
| 2026-05-06 18:44 | 42.84848 | 23.21528 | 37031 ft | 490 kts | 112° |
| 2026-05-06 18:44 | 42.82285 | 23.30145 | 37052 ft | 490 kts | 112° |
| 2026-05-06 18:45 | 42.79721 | 23.38676 | 37056 ft | 490 kts | 112° |
| 2026-05-06 18:45 | 42.77106 | 23.47299 | 37025 ft | 490 kts | 112° |
| 2026-05-06 18:46 | 42.74521 | 23.55816 | 37023 ft | 490 kts | 112° |
| 2026-05-06 18:46 | 42.71907 | 23.64414 | 37026 ft | 490 kts | 112° |
| 2026-05-06 18:47 | 42.69315 | 23.72915 | 37024 ft | 490 kts | 112° |
| 2026-05-06 18:47 | 42.66699 | 23.81460 | 37033 ft | 490 kts | 112° |
| 2026-05-06 18:48 | 42.64214 | 23.90078 | 37032 ft | 489 kts | 109° |
| 2026-05-06 18:48 | 42.61900 | 23.98760 | 37037 ft | 489 kts | 109° |
| 2026-05-06 18:49 | 42.59615 | 24.07449 | 37023 ft | 489 kts | 105° |
| 2026-05-06 18:49 | 42.58140 | 24.16442 | 37013 ft | 488 kts | 100° |
| 2026-05-06 18:50 | 42.56736 | 24.25434 | 37009 ft | 488 kts | 100° |
| 2026-05-06 18:50 | 42.55312 | 24.34453 | 37012 ft | 488 kts | 100° |
| 2026-05-06 18:51 | 42.53902 | 24.43471 | 37002 ft | 489 kts | 100° |
| 2026-05-06 18:51 | 42.52497 | 24.52433 | 37005 ft | 489 kts | 100° |
| 2026-05-06 18:52 | 42.51067 | 24.61446 | 37014 ft | 489 kts | 100° |
| 2026-05-06 18:52 | 42.49631 | 24.70458 | 37015 ft | 489 kts | 100° |
| 2026-05-06 18:53 | 42.48195 | 24.79477 | 37013 ft | 488 kts | 100° |
| 2026-05-06 18:53 | 42.46755 | 24.88479 | 37013 ft | 488 kts | 100° |
| 2026-05-06 18:54 | 42.45299 | 24.97469 | 37013 ft | 488 kts | 100° |
| 2026-05-06 18:54 | 42.43849 | 25.06390 | 37010 ft | 488 kts | 100° |
| 2026-05-06 18:55 | 42.42378 | 25.15359 | 37008 ft | 488 kts | 100° |
| 2026-05-06 18:55 | 42.40911 | 25.24317 | 37018 ft | 488 kts | 99° |
| 2026-05-06 18:56 | 42.39440 | 25.33272 | 37012 ft | 488 kts | 100° |
| 2026-05-06 18:56 | 42.37947 | 25.42240 | 37016 ft | 488 kts | 100° |
| 2026-05-06 18:57 | 42.36446 | 25.51210 | 37017 ft | 488 kts | 100° |
| 2026-05-06 18:57 | 42.34950 | 25.60155 | 37024 ft | 488 kts | 100° |
| 2026-05-06 18:58 | 42.33448 | 25.69055 | 37029 ft | 488 kts | 100° |
| 2026-05-06 18:58 | 42.31929 | 25.78011 | 37032 ft | 489 kts | 100° |
| 2026-05-06 18:59 | 42.30405 | 25.86974 | 37036 ft | 489 kts | 100° |
| 2026-05-06 18:59 | 42.28880 | 25.95938 | 37046 ft | 489 kts | 99° |
| 2026-05-06 19:00 | 42.27339 | 26.04904 | 37041 ft | 489 kts | 100° |
| 2026-05-06 19:00 | 42.25790 | 26.13845 | 37041 ft | 489 kts | 100° |
| 2026-05-06 19:01 | 42.24234 | 26.22742 | 37051 ft | 490 kts | 100° |
| 2026-05-06 19:01 | 42.22668 | 26.31684 | 37069 ft | 490 kts | 99° |
| 2026-05-06 19:02 | 42.21098 | 26.40649 | 37062 ft | 490 kts | 99° |
| 2026-05-06 19:02 | 42.19524 | 26.49589 | 37055 ft | 490 kts | 99° |
| 2026-05-06 19:03 | 42.17945 | 26.58533 | 37067 ft | 490 kts | 99° |
| 2026-05-06 19:03 | 42.16361 | 26.67474 | 37061 ft | 490 kts | 99° |
| 2026-05-06 19:04 | 42.14762 | 26.76417 | 37067 ft | 491 kts | 100° |
| 2026-05-06 19:04 | 42.13165 | 26.85308 | 37074 ft | 491 kts | 100° |
| 2026-05-06 19:05 | 42.11544 | 26.94261 | 37085 ft | 492 kts | 100° |
| 2026-05-06 19:05 | 42.09916 | 27.03207 | 37083 ft | 493 kts | 100° |
| 2026-05-06 19:06 | 42.08284 | 27.12176 | 37090 ft | 493 kts | 100° |
| 2026-05-06 19:06 | 42.06379 | 27.21053 | 37100 ft | 497 kts | 111° |
| 2026-05-06 19:07 | 42.03580 | 27.29554 | 37098 ft | 498 kts | 110° |
| 2026-05-06 19:07 | 42.00821 | 27.38099 | 37098 ft | 498 kts | 110° |
| 2026-05-06 19:08 | 41.98065 | 27.46583 | 37104 ft | 498 kts | 110° |
| 2026-05-06 19:08 | 41.95258 | 27.55107 | 37119 ft | 498 kts | 111° |
| 2026-05-06 19:09 | 41.92439 | 27.63611 | 37114 ft | 497 kts | 110° |
| 2026-05-06 19:09 | 41.89629 | 27.72099 | 37107 ft | 497 kts | 110° |
| 2026-05-06 19:10 | 41.86811 | 27.80592 | 37125 ft | 497 kts | 110° |
| 2026-05-06 19:10 | 41.84005 | 27.89021 | 37115 ft | 497 kts | 110° |
| 2026-05-06 19:11 | 41.81172 | 27.97501 | 37115 ft | 497 kts | 110° |
| 2026-05-06 19:11 | 41.78343 | 28.05953 | 37111 ft | 497 kts | 110° |
| 2026-05-06 19:12 | 41.75497 | 28.14401 | 37115 ft | 497 kts | 110° |
| 2026-05-06 19:12 | 41.72640 | 28.22849 | 37113 ft | 497 kts | 111° |
| 2026-05-06 19:13 | 41.69776 | 28.31277 | 37110 ft | 497 kts | 111° |
| 2026-05-06 19:13 | 41.66938 | 28.39647 | 37124 ft | 497 kts | 111° |
| 2026-05-06 19:14 | 41.64081 | 28.48071 | 37124 ft | 497 kts | 111° |
| 2026-05-06 19:14 | 41.61204 | 28.56497 | 37122 ft | 498 kts | 111° |
| 2026-05-06 19:15 | 41.58313 | 28.64900 | 37138 ft | 498 kts | 111° |
| 2026-05-06 19:15 | 41.55416 | 28.73308 | 37128 ft | 498 kts | 111° |
| 2026-05-06 19:16 | 41.52535 | 28.81656 | 37121 ft | 498 kts | 111° |
| 2026-05-06 19:16 | 41.49618 | 28.90102 | 37117 ft | 498 kts | 111° |
| 2026-05-06 19:17 | 41.46719 | 28.98491 | 37133 ft | 498 kts | 111° |
| 2026-05-06 19:17 | 41.43825 | 29.06812 | 37121 ft | 498 kts | 111° |
| 2026-05-06 19:18 | 41.40901 | 29.15172 | 37120 ft | 497 kts | 111° |
| 2026-05-06 19:18 | 41.37982 | 29.23523 | 37131 ft | 497 kts | 111° |
| 2026-05-06 19:19 | 41.35060 | 29.31864 | 37123 ft | 497 kts | 111° |
| 2026-05-06 19:19 | 41.32122 | 29.40198 | 37122 ft | 497 kts | 111° |
| 2026-05-06 19:20 | 41.29682 | 29.47109 | 37131 ft | 496 kts | 112° |
| 2026-05-06 19:20 | 41.26252 | 29.56809 | 37124 ft | 495 kts | 112° |
| 2026-05-06 19:21 | 41.23322 | 29.65083 | 37117 ft | 495 kts | 112° |
| 2026-05-06 19:21 | 41.20386 | 29.73333 | 37105 ft | 494 kts | 112° |
| 2026-05-06 19:22 | 41.17453 | 29.81537 | 37114 ft | 494 kts | 112° |
| 2026-05-06 19:22 | 41.14501 | 29.89759 | 37113 ft | 493 kts | 112° |
| 2026-05-06 19:23 | 41.11553 | 29.97961 | 37111 ft | 492 kts | 112° |
| 2026-05-06 19:23 | 41.08602 | 30.06168 | 37035 ft | 492 kts | 112° |
| 2026-05-06 19:23 | 41.07130 | 30.10253 | 36725 ft | 491 kts | 113° |
| 2026-05-06 19:24 | 41.05653 | 30.14327 | 36416 ft | 490 kts | 113° |
| 2026-05-06 19:24 | 41.04175 | 30.18393 | 36114 ft | 490 kts | 113° |
| 2026-05-06 19:24 | 41.02699 | 30.22450 | 35816 ft | 490 kts | 113° |
| 2026-05-06 19:24 | 41.01237 | 30.26466 | 35512 ft | 490 kts | 113° |
| 2026-05-06 19:25 | 40.99761 | 30.30523 | 35240 ft | 489 kts | 113° |
| 2026-05-06 19:25 | 40.98278 | 30.34594 | 34936 ft | 490 kts | 113° |
| 2026-05-06 19:25 | 40.96799 | 30.38651 | 34650 ft | 490 kts | 113° |
| 2026-05-06 19:25 | 40.95316 | 30.42720 | 34368 ft | 490 kts | 113° |
| 2026-05-06 19:26 | 40.93835 | 30.46776 | 34080 ft | 490 kts | 113° |
| 2026-05-06 19:26 | 40.92346 | 30.50844 | 33754 ft | 491 kts | 113° |
| 2026-05-06 19:26 | 40.90860 | 30.54904 | 33417 ft | 491 kts | 113° |
| 2026-05-06 19:26 | 40.89369 | 30.58968 | 33127 ft | 491 kts | 113° |
| 2026-05-06 19:27 | 40.87879 | 30.63020 | 32808 ft | 491 kts | 113° |
| 2026-05-06 19:27 | 40.86473 | 30.67132 | 32496 ft | 490 kts | 107° |
| 2026-05-06 19:27 | 40.85435 | 30.71354 | 32195 ft | 489 kts | 104° |
| 2026-05-06 19:27 | 40.84425 | 30.75643 | 31880 ft | 489 kts | 104° |
| 2026-05-06 19:28 | 40.83409 | 30.79930 | 31578 ft | 490 kts | 104° |
| 2026-05-06 19:28 | 40.82383 | 30.84225 | 31109 ft | 490 kts | 104° |
| 2026-05-06 19:28 | 40.81349 | 30.88526 | 30615 ft | 491 kts | 104° |
| 2026-05-06 19:28 | 40.80316 | 30.92824 | 30133 ft | 492 kts | 104° |
| 2026-05-06 19:29 | 40.79280 | 30.97129 | 29563 ft | 493 kts | 105° |
| 2026-05-06 19:29 | 40.78241 | 31.01445 | 29144 ft | 493 kts | 105° |
| 2026-05-06 19:29 | 40.77202 | 31.05756 | 29073 ft | 493 kts | 105° |
| 2026-05-06 19:30 | 40.75116 | 31.14401 | 29115 ft | 495 kts | 104° |
| 2026-05-06 19:30 | 40.73025 | 31.23063 | 29107 ft | 496 kts | 105° |
| 2026-05-06 19:31 | 40.70924 | 31.31709 | 29110 ft | 496 kts | 105° |
| 2026-05-06 19:31 | 40.68108 | 31.43224 | 29133 ft | 496 kts | 105° |
| 2026-05-06 19:32 | 40.65642 | 31.53270 | 29124 ft | 497 kts | 105° |
| 2026-05-06 19:32 | 40.63505 | 31.61927 | 29120 ft | 497 kts | 106° |
| 2026-05-06 19:33 | 40.62353 | 31.66212 | 28861 ft | 496 kts | 108° |
| 2026-05-06 19:33 | 40.61530 | 31.69053 | 28457 ft | 485 kts | 109° |
| 2026-05-06 19:33 | 40.60299 | 31.73077 | 27839 ft | 477 kts | 110° |
| 2026-05-06 19:33 | 40.59016 | 31.77134 | 27205 ft | 472 kts | 110° |
| 2026-05-06 19:34 | 40.57767 | 31.81078 | 26589 ft | 467 kts | 110° |
| 2026-05-06 19:34 | 40.56561 | 31.84942 | 25993 ft | 458 kts | 110° |
| 2026-05-06 19:34 | 40.55377 | 31.88803 | 25404 ft | 453 kts | 109° |
| 2026-05-06 19:34 | 40.54223 | 31.92631 | 24854 ft | 449 kts | 109° |
| 2026-05-06 19:35 | 40.53087 | 31.96428 | 24359 ft | 443 kts | 109° |
| 2026-05-06 19:35 | 40.51968 | 32.00174 | 23876 ft | 437 kts | 109° |
| 2026-05-06 19:35 | 40.50861 | 32.03862 | 23322 ft | 428 kts | 109° |
| 2026-05-06 19:35 | 40.49773 | 32.07462 | 22742 ft | 421 kts | 109° |
| 2026-05-06 19:36 | 40.48697 | 32.11012 | 22188 ft | 416 kts | 110° |
| 2026-05-06 19:36 | 40.47627 | 32.14523 | 21629 ft | 412 kts | 110° |
| 2026-05-06 19:36 | 40.46564 | 32.18005 | 21096 ft | 408 kts | 110° |
| 2026-05-06 19:36 | 40.45514 | 32.21443 | 20566 ft | 404 kts | 110° |
| 2026-05-06 19:37 | 40.44472 | 32.24853 | 20051 ft | 402 kts | 110° |
| 2026-05-06 19:37 | 40.43435 | 32.28239 | 19539 ft | 397 kts | 110° |
| 2026-05-06 19:37 | 40.42410 | 32.31583 | 19205 ft | 393 kts | 110° |
| 2026-05-06 19:37 | 40.41389 | 32.34908 | 19106 ft | 391 kts | 110° |
| 2026-05-06 19:38 | 40.40370 | 32.38229 | 18947 ft | 392 kts | 110° |
| 2026-05-06 19:38 | 40.39360 | 32.41530 | 18593 ft | 386 kts | 110° |
| 2026-05-06 19:38 | 40.38309 | 32.44726 | 18217 ft | 378 kts | 116° |
| 2026-05-06 19:38 | 40.36991 | 32.47669 | 17815 ft | 371 kts | 123° |
| 2026-05-06 19:39 | 40.35494 | 32.50385 | 17413 ft | 364 kts | 125° |
| 2026-05-06 19:39 | 40.34015 | 32.53051 | 17021 ft | 358 kts | 125° |
| 2026-05-06 19:39 | 40.32584 | 32.55644 | 16641 ft | 353 kts | 125° |
| 2026-05-06 19:39 | 40.31161 | 32.58237 | 16252 ft | 348 kts | 125° |
| 2026-05-06 19:40 | 40.29761 | 32.60788 | 15875 ft | 342 kts | 125° |
| 2026-05-06 19:40 | 40.28390 | 32.63285 | 15495 ft | 332 kts | 125° |
| 2026-05-06 19:40 | 40.27068 | 32.65692 | 15125 ft | 319 kts | 125° |
| 2026-05-06 19:40 | 40.25794 | 32.68010 | 14763 ft | 309 kts | 125° |
| 2026-05-06 19:41 | 40.24555 | 32.70258 | 14401 ft | 299 kts | 125° |
| 2026-05-06 19:41 | 40.23355 | 32.72428 | 14029 ft | 290 kts | 125° |
| 2026-05-06 19:41 | 40.22188 | 32.74536 | 13652 ft | 282 kts | 125° |
| 2026-05-06 19:41 | 40.21050 | 32.76595 | 13265 ft | 279 kts | 126° |
| 2026-05-06 19:42 | 40.20026 | 32.78750 | 12875 ft | 279 kts | 111° |
| 2026-05-06 19:42 | 40.19669 | 32.81208 | 12532 ft | 275 kts | 88° |
| 2026-05-06 19:42 | 40.20065 | 32.83620 | 12203 ft | 272 kts | 65° |
| 2026-05-06 19:42 | 40.21121 | 32.85631 | 11851 ft | 268 kts | 43° |
| 2026-05-06 19:43 | 40.22590 | 32.87116 | 11569 ft | 265 kts | 36° |
| 2026-05-06 19:43 | 40.24078 | 32.88529 | 11316 ft | 263 kts | 36° |
| 2026-05-06 19:43 | 40.25555 | 32.89933 | 11063 ft | 262 kts | 36° |
| 2026-05-06 19:43 | 40.27033 | 32.91338 | 10810 ft | 261 kts | 36° |
| 2026-05-06 19:44 | 40.28498 | 32.92733 | 10576 ft | 260 kts | 36° |
| 2026-05-06 19:44 | 40.29966 | 32.94132 | 10331 ft | 258 kts | 37° |
| 2026-05-06 19:44 | 40.31383 | 32.95485 | 10127 ft | 253 kts | 37° |
| 2026-05-06 19:44 | 40.32780 | 32.96815 | 10010 ft | 243 kts | 37° |
| 2026-05-06 19:45 | 40.34127 | 32.98089 | 9907 ft | 237 kts | 36° |
| 2026-05-06 19:45 | 40.35464 | 32.99355 | 9797 ft | 236 kts | 36° |
| 2026-05-06 19:45 | 40.36792 | 33.00613 | 9688 ft | 235 kts | 36° |
| 2026-05-06 19:45 | 40.38119 | 33.01869 | 9583 ft | 235 kts | 37° |
| 2026-05-06 19:46 | 40.39446 | 33.03126 | 9476 ft | 235 kts | 36° |
| 2026-05-06 19:46 | 40.40768 | 33.04380 | 9362 ft | 234 kts | 36° |
| 2026-05-06 19:46 | 40.42087 | 33.05632 | 9265 ft | 234 kts | 36° |
| 2026-05-06 19:46 | 40.43407 | 33.06885 | 9162 ft | 234 kts | 37° |
| 2026-05-06 19:47 | 40.44688 | 33.08199 | 9051 ft | 233 kts | 49° |
| 2026-05-06 19:47 | 40.45425 | 33.10040 | 8937 ft | 229 kts | 82° |
| 2026-05-06 19:47 | 40.45276 | 33.12077 | 8836 ft | 226 kts | 115° |
| 2026-05-06 19:47 | 40.44554 | 33.13907 | 8746 ft | 226 kts | 117° |
| 2026-05-06 19:48 | 40.43771 | 33.15684 | 8641 ft | 225 kts | 125° |
| 2026-05-06 19:48 | 40.42876 | 33.17382 | 8541 ft | 226 kts | 126° |
| 2026-05-06 19:48 | 40.41816 | 33.18868 | 8427 ft | 223 kts | 150° |
| 2026-05-06 19:48 | 40.40349 | 33.19423 | 8327 ft | 221 kts | 179° |
| 2026-05-06 19:49 | 40.38827 | 33.19302 | 8212 ft | 222 kts | 192° |
| 2026-05-06 19:49 | 40.37333 | 33.18777 | 8024 ft | 222 kts | 193° |
| 2026-05-06 19:49 | 40.35871 | 33.18144 | 7850 ft | 220 kts | 206° |
| 2026-05-06 19:49 | 40.34497 | 33.17246 | 7742 ft | 220 kts | 207° |
| 2026-05-06 19:50 | 40.33112 | 33.16399 | 7594 ft | 220 kts | 200° |
| 2026-05-06 19:50 | 40.31637 | 33.15873 | 7441 ft | 217 kts | 191° |
| 2026-05-06 19:50 | 40.30196 | 33.15541 | 7291 ft | 208 kts | 189° |
| 2026-05-06 19:50 | 40.28836 | 33.14982 | 6860 ft | 209 kts | 213° |
| 2026-05-06 19:51 | 40.27667 | 33.13871 | 6529 ft | 206 kts | 216° |
| 2026-05-06 19:51 | 40.26530 | 33.12775 | 6228 ft | 198 kts | 216° |
| 2026-05-06 19:51 | 40.25457 | 33.11745 | 5970 ft | 182 kts | 217° |
| 2026-05-06 19:51 | 40.24490 | 33.10819 | 5728 ft | 164 kts | 217° |
| 2026-05-06 19:52 | 40.23595 | 33.09962 | 5508 ft | 155 kts | 217° |
| 2026-05-06 19:52 | 40.22736 | 33.09140 | 5310 ft | 152 kts | 217° |
| 2026-05-06 19:52 | 40.21888 | 33.08328 | 5109 ft | 151 kts | 217° |
| 2026-05-06 19:52 | 40.21045 | 33.07522 | 4921 ft | 150 kts | 217° |
| 2026-05-06 19:53 | 40.20203 | 33.06717 | 4685 ft | 149 kts | 217° |
| 2026-05-06 19:53 | 40.19366 | 33.05917 | 4465 ft | 149 kts | 216° |
| 2026-05-06 19:53 | 40.18538 | 33.05125 | 4247 ft | 150 kts | 216° |
| 2026-05-06 19:53 | 40.17695 | 33.04320 | 4028 ft | 150 kts | 216° |
| 2026-05-06 19:54 | 40.16856 | 33.03519 | 3823 ft | 149 kts | 216° |
| 2026-05-06 19:54 | 40.16020 | 33.02720 | 3630 ft | 149 kts | 216° |
| 2026-05-06 19:54 | 40.15181 | 33.01926 | 3406 ft | 148 kts | 216° |
| 2026-05-06 19:54 | 40.14355 | 33.01129 | 3248 ft | 148 kts | 215° |
| 2026-05-06 19:55 | 40.13542 | 33.00357 | 3132 ft | 134 kts | 216° |
| 2026-05-06 19:55 | 40.12931 | 32.99773 | 3123 ft | 84 kts | 216° |
| 2026-05-06 19:55 | 40.12598 | 32.99454 | 3121 ft | 39 kts | 216° |
| 2026-05-06 19:55 | 40.12418 | 32.99285 | 3119 ft | 30 kts | 212° |
| 2026-05-06 19:56 | 40.12256 | 32.99210 | 3117 ft | 18 kts | 188° |
| 2026-05-06 19:56 | 40.12180 | 32.99199 | 3117 ft | 9 kts | 186° |
| 2026-05-06 19:56 | 40.12124 | 32.99191 | 3117 ft | 7 kts | 187° |
| 2026-05-06 19:56 | 40.12076 | 32.99183 | 3116 ft | 7 kts | 187° |
| 2026-05-06 19:57 | 40.11985 | 32.99165 | 3115 ft | 18 kts | 199° |
| 2026-05-06 19:57 | 40.11882 | 32.99077 | 3114 ft | 16 kts | 215° |
| 2026-05-06 19:57 | 40.11811 | 32.99043 | 3113 ft | 10 kts | 164° |
| 2026-05-06 19:57 | 40.11763 | 32.99101 | 3113 ft | 9 kts | 145° |
| 2026-05-06 19:58 | 40.11717 | 32.99138 | 3113 ft | 7 kts | 128° |
| 2026-05-06 19:58 | 40.11716 | 32.99200 | 3113 ft | 6 kts | 68° |
| 2026-05-06 19:58 | 40.11733 | 32.99256 | 3113 ft | 8 kts | 67° |
| 2026-05-06 19:58 | 40.11755 | 32.99340 | 3113 ft | 11 kts | 75° |
| 2026-05-06 19:59 | 40.11773 | 32.99431 | 3113 ft | 8 kts | 76° |
| 2026-05-06 19:59 | 40.11760 | 32.99490 | 3113 ft | 3 kts | 154° |
| 2026-05-06 19:59 | 40.11731 | 32.99495 | 3113 ft | 5 kts | 173° |
| 2026-05-06 19:59 | 40.11711 | 32.99498 | 3113 ft | 1 kts | 173° |
| 2026-05-06 20:00 | 40.11706 | 32.99498 | 3113 ft | 0 kts | 173° |